createdAt,value
2018-09-14T00:00:53.624Z,17.10
2018-09-14T00:01:53.605Z,17.08
2018-09-14T00:02:53.585Z,16.99
2018-09-14T00:03:53.566Z,17.10
2018-09-14T00:04:53.550Z,17.03
2018-09-14T00:05:53.530Z,17.00
2018-09-14T00:06:53.509Z,16.98
2018-09-14T00:07:53.489Z,16.95
2018-09-14T00:08:53.471Z,16.95
2018-09-14T00:09:53.455Z,16.93
2018-09-14T00:10:53.433Z,16.90
2018-09-14T00:11:53.414Z,16.90
2018-09-14T00:12:53.394Z,16.93
2018-09-14T00:13:53.375Z,16.93
2018-09-14T00:14:53.354Z,16.95
2018-09-14T00:15:53.335Z,16.92
2018-09-14T00:16:53.316Z,16.95
2018-09-14T00:17:53.297Z,16.92
2018-09-14T00:18:53.277Z,16.92
2018-09-14T00:19:54.010Z,16.93
2018-09-14T00:20:53.241Z,16.92
2018-09-14T00:21:53.221Z,16.98
2018-09-14T00:22:53.200Z,16.95
2018-09-14T00:23:53.181Z,16.96
2018-09-14T00:24:53.162Z,16.95
2018-09-14T00:25:53.143Z,17.03
2018-09-14T00:26:53.123Z,17.07
2018-09-14T00:27:53.105Z,17.07
2018-09-14T00:28:53.086Z,17.04
2018-09-14T00:29:53.067Z,17.07
2018-09-14T00:30:53.046Z,17.07
2018-09-14T00:31:53.028Z,17.06
2018-09-14T00:32:53.008Z,17.00
2018-09-14T00:33:52.990Z,17.10
2018-09-14T00:34:52.974Z,17.11
2018-09-14T00:35:52.950Z,17.08
2018-09-14T00:36:52.932Z,17.00
2018-09-14T00:37:52.912Z,17.11
2018-09-14T00:38:52.893Z,17.06
2018-09-14T00:39:52.873Z,17.13
2018-09-14T00:40:52.854Z,17.00
2018-09-14T00:41:52.835Z,17.03
2018-09-14T00:42:52.814Z,17.14
2018-09-14T00:43:52.795Z,17.00
2018-09-14T00:44:52.778Z,17.17
2018-09-14T00:45:52.760Z,17.04
2018-09-14T00:46:52.738Z,16.99
2018-09-14T00:47:52.719Z,17.08
2018-09-14T00:48:52.700Z,17.06
2018-09-14T00:49:52.682Z,17.06
2018-09-14T00:50:52.662Z,17.03
2018-09-14T00:51:52.642Z,17.03
2018-09-14T00:52:52.625Z,17.06
2018-09-14T00:53:52.604Z,17.04
2018-09-14T00:54:52.585Z,17.08
2018-09-14T00:55:52.565Z,17.04
2018-09-14T00:56:52.547Z,17.07
2018-09-14T00:57:52.527Z,17.04
2018-09-14T00:58:52.508Z,16.96
2018-09-14T00:59:52.489Z,16.95
2018-09-14T01:00:52.470Z,17.00
2018-09-14T01:01:52.450Z,16.93
2018-09-14T01:02:52.430Z,16.95
2018-09-14T01:03:52.411Z,16.99
2018-09-14T01:04:52.392Z,16.98
2018-09-14T01:05:52.373Z,16.95
2018-09-14T01:06:52.353Z,16.95
2018-09-14T01:07:52.334Z,16.98
2018-09-14T01:08:52.316Z,16.98
2018-09-14T01:09:52.298Z,16.93
2018-09-14T01:10:52.277Z,16.99
2018-09-14T01:11:52.257Z,17.00
2018-09-14T01:12:52.237Z,17.06
2018-09-14T01:13:52.219Z,17.04
2018-09-14T01:14:52.200Z,16.96
2018-09-14T01:15:52.180Z,17.03
2018-09-14T01:16:52.160Z,16.99
2018-09-14T01:17:52.141Z,16.99
2018-09-14T01:18:52.123Z,16.96
2018-09-14T01:19:52.103Z,16.98
2018-09-14T01:20:52.083Z,17.00
2018-09-14T01:21:52.066Z,17.04
2018-09-14T01:22:52.045Z,17.10
2018-09-14T01:23:52.026Z,16.92
2018-09-14T01:24:52.007Z,16.98
2018-09-14T01:25:51.987Z,17.03
2018-09-14T01:26:51.969Z,17.00
2018-09-14T01:27:51.946Z,16.98
2018-09-14T01:28:51.927Z,17.00
2018-09-14T01:29:51.909Z,17.07
2018-09-14T01:30:51.890Z,17.07
2018-09-14T01:31:51.869Z,16.93
2018-09-14T01:32:51.851Z,17.03
2018-09-14T01:33:51.832Z,17.00
2018-09-14T01:34:51.812Z,17.00
2018-09-14T01:35:51.792Z,17.03
2018-09-14T01:36:51.775Z,16.99
2018-09-14T01:37:51.755Z,17.06
2018-09-14T01:38:51.738Z,16.98
2018-09-14T01:39:51.716Z,16.99
2018-09-14T01:40:51.697Z,16.95
2018-09-14T01:41:51.680Z,17.00
2018-09-14T01:42:51.660Z,17.00
2018-09-14T01:43:51.640Z,16.99
2018-09-14T01:44:51.619Z,17.04
2018-09-14T01:45:51.600Z,17.00
2018-09-14T01:46:51.580Z,17.03
2018-09-14T01:47:51.561Z,16.96
2018-09-14T01:48:51.542Z,16.98
2018-09-14T01:49:51.523Z,17.00
2018-09-14T01:50:51.504Z,17.04
2018-09-14T01:51:51.483Z,17.03
2018-09-14T01:52:51.464Z,16.90
2018-09-14T01:53:51.447Z,16.99
2018-09-14T01:54:51.427Z,17.03
2018-09-14T01:55:51.406Z,17.03
2018-09-14T01:56:51.388Z,16.95
2018-09-14T01:57:51.372Z,16.95
2018-09-14T01:58:51.347Z,16.95
2018-09-14T01:59:51.329Z,16.99
2018-09-14T02:00:51.309Z,16.93
2018-09-14T02:01:51.291Z,16.99
2018-09-14T02:02:51.271Z,16.93
2018-09-14T02:03:51.251Z,16.96
2018-09-14T02:04:51.232Z,16.95
2018-09-14T02:05:51.213Z,16.90
2018-09-14T02:06:51.194Z,16.92
2018-09-14T02:07:51.174Z,16.96
2018-09-14T02:08:51.155Z,17.03
2018-09-14T02:09:51.140Z,17.06
2018-09-14T02:10:51.115Z,17.03
2018-09-14T02:11:51.097Z,17.04
2018-09-14T02:12:51.079Z,17.03
2018-09-14T02:13:51.059Z,17.07
2018-09-14T02:14:51.038Z,17.04
2018-09-14T02:15:51.019Z,17.10
2018-09-14T02:16:51.000Z,17.03
2018-09-14T02:17:50.997Z,17.07
2018-09-14T02:18:50.961Z,16.99
2018-09-14T02:19:51.696Z,17.03
2018-09-14T02:20:50.922Z,17.03
2018-09-14T02:21:50.904Z,16.98
2018-09-14T02:22:50.888Z,16.96
2018-09-14T02:23:50.865Z,16.81
2018-09-14T02:24:50.845Z,16.92
2018-09-14T02:25:50.826Z,16.88
2018-09-14T02:26:50.807Z,16.95
2018-09-14T02:27:50.788Z,16.96
2018-09-14T02:28:50.767Z,16.95
2018-09-14T02:29:50.749Z,16.92
2018-09-14T02:30:50.733Z,16.96
2018-09-14T02:31:50.711Z,16.93
2018-09-14T02:32:50.693Z,16.92
2018-09-14T02:33:50.673Z,16.92
2018-09-14T02:34:50.652Z,16.90
2018-09-14T02:35:50.633Z,16.92
2018-09-14T02:36:50.614Z,16.96
2018-09-14T02:37:50.596Z,16.93
2018-09-14T02:38:50.574Z,16.92
2018-09-14T02:39:50.555Z,16.95
2018-09-14T02:40:50.537Z,16.96
2018-09-14T02:41:50.530Z,16.93
2018-09-14T02:42:50.499Z,16.95
2018-09-14T02:43:50.482Z,16.93
2018-09-14T02:44:50.466Z,16.96
2018-09-14T02:45:50.441Z,16.95
2018-09-14T02:46:51.172Z,16.95
2018-09-14T02:47:50.409Z,16.98
2018-09-14T02:48:50.383Z,16.92
2018-09-14T02:49:50.364Z,16.90
2018-09-14T02:50:50.346Z,16.95
2018-09-14T02:51:50.325Z,16.95
2018-09-14T02:52:50.306Z,16.92
2018-09-14T02:53:50.288Z,16.90
2018-09-14T02:54:50.267Z,16.89
2018-09-14T02:55:50.247Z,16.90
2018-09-14T02:56:50.228Z,16.93
2018-09-14T02:57:50.961Z,16.92
2018-09-14T02:58:50.189Z,16.95
2018-09-14T02:59:50.170Z,16.92
2018-09-14T03:00:50.152Z,17.00
2018-09-14T03:01:50.133Z,16.98
2018-09-14T03:02:50.112Z,16.99
2018-09-14T03:03:50.103Z,17.03
2018-09-14T03:04:50.075Z,16.98
2018-09-14T03:05:50.057Z,16.89
2018-09-14T03:06:50.035Z,16.96
2018-09-14T03:07:50.027Z,16.99
2018-09-14T03:08:49.997Z,16.83
2018-09-14T03:09:49.979Z,16.95
2018-09-14T03:10:49.960Z,16.96
2018-09-14T03:11:49.940Z,16.95
2018-09-14T03:12:49.920Z,16.90
2018-09-14T03:13:49.900Z,17.00
2018-09-14T03:14:49.881Z,16.92
2018-09-14T03:15:49.862Z,16.93
2018-09-14T03:16:49.845Z,16.99
2018-09-14T03:17:49.824Z,16.99
2018-09-14T03:18:49.803Z,17.04
2018-09-14T03:19:49.788Z,17.00
2018-09-14T03:20:49.765Z,17.04
2018-09-14T03:21:49.746Z,17.06
2018-09-14T03:22:49.726Z,17.00
2018-09-14T03:23:49.707Z,16.96
2018-09-14T03:24:49.688Z,16.92
2018-09-14T03:25:49.669Z,16.96
2018-09-14T03:26:49.649Z,16.96
2018-09-14T03:27:49.631Z,16.99
2018-09-14T03:28:49.610Z,16.99
2018-09-14T03:29:50.343Z,16.92
2018-09-14T03:30:49.571Z,16.95
2018-09-14T03:31:49.552Z,16.93
2018-09-14T03:32:49.533Z,16.80
2018-09-14T03:33:49.514Z,16.86
2018-09-14T03:34:49.494Z,16.86
2018-09-14T03:35:49.476Z,16.89
2018-09-14T03:36:49.456Z,16.78
2018-09-14T03:37:49.437Z,16.92
2018-09-14T03:38:49.416Z,16.98
2018-09-14T03:39:49.398Z,16.96
2018-09-14T03:40:49.383Z,16.89
2018-09-14T03:41:49.360Z,16.96
2018-09-14T03:42:49.340Z,16.92
2018-09-14T03:43:49.320Z,16.95
2018-09-14T03:44:49.301Z,16.92
2018-09-14T03:45:49.282Z,16.92
2018-09-14T03:46:49.262Z,16.95
2018-09-14T03:47:49.242Z,17.07
2018-09-14T03:48:49.224Z,17.08
2018-09-14T03:49:49.209Z,17.11
2018-09-14T03:50:49.188Z,17.10
2018-09-14T03:51:49.165Z,16.98
2018-09-14T03:52:49.147Z,17.08
2018-09-14T03:53:49.128Z,17.03
2018-09-14T03:54:49.107Z,17.10
2018-09-14T03:55:49.089Z,17.07
2018-09-14T03:56:49.069Z,17.03
2018-09-14T03:57:49.050Z,17.10
2018-09-14T03:58:49.029Z,17.10
2018-09-14T03:59:49.016Z,17.04
2018-09-14T04:00:48.994Z,17.08
2018-09-14T04:01:49.729Z,17.14
2018-09-14T04:02:48.953Z,17.00
2018-09-14T04:03:48.935Z,17.15
2018-09-14T04:04:48.914Z,17.07
2018-09-14T04:05:48.895Z,17.15
2018-09-14T04:06:48.876Z,17.07
2018-09-14T04:07:48.903Z,17.06
2018-09-14T04:08:48.838Z,16.98
2018-09-14T04:09:48.819Z,17.07
2018-09-14T04:10:48.797Z,17.10
2018-09-14T04:11:48.779Z,17.03
2018-09-14T04:12:48.760Z,17.00
2018-09-14T04:13:48.741Z,17.06
2018-09-14T04:14:48.722Z,17.10
2018-09-14T04:15:48.703Z,17.03
2018-09-14T04:16:48.684Z,16.92
2018-09-14T04:17:48.664Z,16.90
2018-09-14T04:18:48.644Z,16.98
2018-09-14T04:19:48.626Z,16.89
2018-09-14T04:20:48.605Z,17.03
2018-09-14T04:21:48.587Z,16.98
2018-09-14T04:22:48.566Z,16.95
2018-09-14T04:23:48.556Z,16.92
2018-09-14T04:24:48.532Z,16.98
2018-09-14T04:25:48.508Z,16.99
2018-09-14T04:26:48.495Z,16.93
2018-09-14T04:27:48.470Z,16.95
2018-09-14T04:28:48.451Z,17.00
2018-09-14T04:29:48.431Z,16.99
2018-09-14T04:30:48.411Z,17.03
2018-09-14T04:31:48.394Z,16.96
2018-09-14T04:32:48.374Z,16.93
2018-09-14T04:33:48.355Z,16.96
2018-09-14T04:34:48.334Z,16.98
2018-09-14T04:35:48.316Z,16.90
2018-09-14T04:36:48.296Z,16.96
2018-09-14T04:37:48.277Z,16.92
2018-09-14T04:38:48.258Z,17.00
2018-09-14T04:39:48.240Z,16.92
2018-09-14T04:40:48.219Z,16.99
2018-09-14T04:41:48.201Z,16.92
2018-09-14T04:42:48.184Z,16.93
2018-09-14T04:43:48.162Z,16.92
2018-09-14T04:44:48.143Z,16.92
2018-09-14T04:45:48.125Z,16.92
2018-09-14T04:46:48.103Z,16.96
2018-09-14T04:47:48.085Z,16.93
2018-09-14T04:48:48.066Z,16.89
2018-09-14T04:49:48.046Z,16.85
2018-09-14T04:50:48.026Z,16.74
2018-09-14T04:51:48.008Z,16.75
2018-09-14T04:52:50.240Z,16.83
2018-09-14T04:53:47.977Z,16.78
2018-09-14T04:54:47.968Z,16.81
2018-09-14T04:55:47.931Z,16.89
2018-09-14T04:56:47.911Z,16.96
2018-09-14T04:57:47.893Z,16.90
2018-09-14T04:58:47.873Z,16.98
2018-09-14T04:59:47.854Z,16.96
2018-09-14T05:00:47.835Z,16.88
2018-09-14T05:01:47.815Z,16.89
2018-09-14T05:02:47.797Z,16.92
2018-09-14T05:03:47.776Z,16.85
2018-09-14T05:04:47.758Z,16.92
2018-09-14T05:05:47.739Z,16.77
2018-09-14T05:06:47.717Z,16.80
2018-09-14T05:07:47.700Z,16.85
2018-09-14T05:08:47.680Z,16.86
2018-09-14T05:09:47.661Z,16.78
2018-09-14T05:10:47.644Z,16.83
2018-09-14T05:11:47.623Z,16.73
2018-09-14T05:12:47.606Z,16.81
2018-09-14T05:13:47.583Z,16.77
2018-09-14T05:14:47.563Z,16.80
2018-09-14T05:15:47.544Z,16.83
2018-09-14T05:16:47.525Z,16.73
2018-09-14T05:17:47.506Z,16.74
2018-09-14T05:18:47.487Z,16.73
2018-09-14T05:19:47.467Z,16.71
2018-09-14T05:20:47.486Z,16.70
2018-09-14T05:21:47.428Z,16.68
2018-09-14T05:22:47.409Z,16.71
2018-09-14T05:23:47.396Z,16.77
2018-09-14T05:24:47.371Z,16.73
2018-09-14T05:25:47.351Z,16.70
2018-09-14T05:26:47.330Z,16.80
2018-09-14T05:27:47.312Z,16.73
2018-09-14T05:28:47.292Z,16.68
2018-09-14T05:29:47.277Z,16.59
2018-09-14T05:30:47.255Z,16.73
2018-09-14T05:31:47.234Z,16.73
2018-09-14T05:32:47.214Z,16.75
2018-09-14T05:33:47.194Z,16.74
2018-09-14T05:34:47.174Z,16.68
2018-09-14T05:35:47.157Z,16.68
2018-09-14T05:36:47.135Z,16.75
2018-09-14T05:37:47.117Z,16.75
2018-09-14T05:38:47.096Z,16.81
2018-09-14T05:39:47.076Z,16.83
2018-09-14T05:40:47.062Z,16.90
2018-09-14T05:41:47.042Z,16.80
2018-09-14T05:42:47.018Z,16.86
2018-09-14T05:43:46.999Z,16.89
2018-09-14T05:44:46.983Z,16.85
2018-09-14T05:45:48.530Z,16.77
2018-09-14T05:46:46.940Z,16.78
2018-09-14T05:47:46.922Z,16.80
2018-09-14T05:48:46.903Z,16.81
2018-09-14T05:49:46.884Z,16.77
2018-09-14T05:50:46.863Z,16.81
2018-09-14T05:51:47.595Z,16.80
2018-09-14T05:52:46.825Z,16.71
2018-09-14T05:53:46.808Z,16.71
2018-09-14T05:54:46.787Z,16.71
2018-09-14T05:55:46.769Z,16.77
2018-09-14T05:56:46.747Z,16.71
2018-09-14T05:57:46.728Z,16.77
2018-09-14T05:58:46.709Z,16.78
2018-09-14T05:59:46.688Z,16.70
2018-09-14T06:00:46.670Z,16.77
2018-09-14T06:01:46.651Z,16.89
2018-09-14T06:02:46.630Z,16.83
2018-09-14T06:03:46.611Z,16.78
2018-09-14T06:04:46.592Z,16.81
2018-09-14T06:05:46.574Z,16.83
2018-09-14T06:06:46.560Z,16.89
2018-09-14T06:07:46.534Z,16.86
2018-09-14T06:08:46.515Z,16.85
2018-09-14T06:09:46.496Z,16.77
2018-09-14T06:10:46.480Z,16.77
2018-09-14T06:11:46.456Z,16.73
2018-09-14T06:12:46.441Z,16.77
2018-09-14T06:13:46.419Z,16.71
2018-09-14T06:14:46.399Z,16.74
2018-09-14T06:15:46.379Z,16.86
2018-09-14T06:16:46.362Z,16.80
2018-09-14T06:17:46.341Z,16.83
2018-09-14T06:18:46.322Z,16.81
2018-09-14T06:19:46.303Z,16.85
2018-09-14T06:20:46.283Z,16.75
2018-09-14T06:21:46.264Z,16.80
2018-09-14T06:22:46.283Z,16.80
2018-09-14T06:23:46.224Z,16.86
2018-09-14T06:24:46.279Z,16.77
2018-09-14T06:25:46.186Z,16.81
2018-09-14T06:26:46.166Z,16.83
2018-09-14T06:27:46.147Z,16.83
2018-09-14T06:28:46.126Z,16.78
2018-09-14T06:29:46.108Z,16.77
2018-09-14T06:30:46.088Z,16.89
2018-09-14T06:31:46.075Z,16.77
2018-09-14T06:32:46.049Z,16.90
2018-09-14T06:33:46.030Z,16.95
2018-09-14T06:34:46.012Z,17.00
2018-09-14T06:35:45.993Z,16.96
2018-09-14T06:36:45.971Z,16.99
2018-09-14T06:37:45.952Z,16.96
2018-09-14T06:38:45.932Z,17.03
2018-09-14T06:39:45.975Z,17.10
2018-09-14T06:40:45.894Z,17.00
2018-09-14T06:41:45.875Z,17.07
2018-09-14T06:42:45.855Z,17.07
2018-09-14T06:43:45.836Z,17.03
2018-09-14T06:44:45.818Z,16.99
2018-09-14T06:45:45.798Z,17.08
2018-09-14T06:46:45.782Z,17.06
2018-09-14T06:47:45.759Z,17.10
2018-09-14T06:48:45.741Z,17.08
2018-09-14T06:49:45.721Z,17.06
2018-09-14T06:50:45.701Z,17.17
2018-09-14T06:51:45.683Z,17.08
2018-09-14T06:52:45.667Z,17.17
2018-09-14T06:53:45.646Z,17.17
2018-09-14T06:54:45.626Z,17.29
2018-09-14T06:55:45.609Z,17.32
2018-09-14T06:56:45.589Z,17.33
2018-09-14T06:57:45.568Z,17.32
2018-09-14T06:58:45.550Z,17.54
2018-09-14T06:59:45.531Z,17.53
2018-09-14T07:00:45.516Z,17.63
2018-09-14T07:01:47.744Z,17.59
2018-09-14T07:02:45.474Z,17.51
2018-09-14T07:03:45.456Z,17.54
2018-09-14T07:04:45.435Z,17.53
2018-09-14T07:05:45.417Z,17.57
2018-09-14T07:06:45.397Z,17.66
2018-09-14T07:07:46.129Z,17.62
2018-09-14T07:08:45.359Z,17.63
2018-09-14T07:09:45.341Z,17.66
2018-09-14T07:10:45.327Z,17.70
2018-09-14T07:11:45.304Z,17.74
2018-09-14T07:12:45.287Z,17.79
2018-09-14T07:13:45.266Z,17.91
2018-09-14T07:14:45.245Z,18.09
2018-09-14T07:15:45.227Z,18.00
2018-09-14T07:16:45.212Z,18.00
2018-09-14T07:17:45.190Z,18.02
2018-09-14T07:18:45.180Z,18.02
2018-09-14T07:19:45.152Z,18.00
2018-09-14T07:20:45.134Z,18.04
2018-09-14T07:21:45.172Z,18.02
2018-09-14T07:22:45.097Z,18.13
2018-09-14T07:23:45.079Z,18.13
2018-09-14T07:24:45.190Z,18.15
2018-09-14T07:25:45.053Z,18.15
2018-09-14T07:26:45.023Z,18.22
2018-09-14T07:27:45.014Z,18.09
2018-09-14T07:28:45.052Z,17.92
2018-09-14T07:29:44.990Z,17.84
2018-09-14T07:30:44.973Z,17.91
2018-09-14T07:31:44.996Z,17.91
2018-09-14T07:32:44.937Z,18.04
2018-09-14T07:33:44.896Z,17.99
2018-09-14T07:34:44.876Z,18.03
2018-09-14T07:35:44.856Z,18.15
2018-09-14T07:36:44.838Z,17.89
2018-09-14T07:37:44.822Z,17.95
2018-09-14T07:38:44.805Z,17.95
2018-09-14T07:39:44.786Z,17.95
2018-09-14T07:40:44.765Z,17.88
2018-09-14T07:41:44.748Z,18.04
2018-09-14T07:42:44.728Z,18.07
2018-09-14T07:43:44.711Z,18.06
2018-09-14T07:44:44.692Z,18.03
2018-09-14T07:45:45.425Z,18.13
2018-09-14T07:46:44.655Z,18.02
2018-09-14T07:47:44.637Z,18.18
2018-09-14T07:48:44.619Z,18.12
2018-09-14T07:49:44.601Z,18.04
2018-09-14T07:50:44.582Z,18.04
2018-09-14T07:51:44.564Z,18.17
2018-09-14T07:52:44.546Z,18.19
2018-09-14T07:53:44.529Z,18.25
2018-09-14T07:54:44.510Z,18.27
2018-09-14T07:55:44.492Z,18.34
2018-09-14T07:56:44.474Z,18.47
2018-09-14T07:57:44.457Z,18.58
2018-09-14T07:58:44.441Z,18.54
2018-09-14T07:59:44.420Z,18.42
2018-09-14T08:00:44.408Z,18.49
2018-09-14T08:01:44.400Z,18.39
2018-09-14T08:02:44.367Z,18.46
2018-09-14T08:03:44.349Z,18.50
2018-09-14T08:04:44.333Z,18.40
2018-09-14T08:05:44.316Z,18.39
2018-09-14T08:06:44.297Z,18.28
2018-09-14T08:07:44.280Z,18.22
2018-09-14T08:08:44.263Z,18.22
2018-09-14T08:09:44.245Z,18.36
2018-09-14T08:10:44.226Z,18.42
2018-09-14T08:11:44.209Z,18.40
2018-09-14T08:12:46.444Z,18.54
2018-09-14T08:13:44.176Z,18.64
2018-09-14T08:14:44.157Z,18.68
2018-09-14T08:15:44.139Z,18.54
2018-09-14T08:16:44.122Z,18.50
2018-09-14T08:17:44.104Z,18.34
2018-09-14T08:18:44.088Z,18.36
2018-09-14T08:19:44.069Z,18.37
2018-09-14T08:20:44.051Z,18.24
2018-09-14T08:21:44.156Z,18.34
2018-09-14T08:22:44.019Z,18.42
2018-09-14T08:23:44.003Z,18.37
2018-09-14T08:24:43.986Z,18.29
2018-09-14T08:25:43.965Z,18.33
2018-09-14T08:26:43.955Z,18.34
2018-09-14T08:27:43.929Z,18.34
2018-09-14T08:28:43.917Z,18.39
2018-09-14T08:29:43.894Z,18.46
2018-09-14T08:30:43.876Z,18.44
2018-09-14T08:31:43.858Z,18.54
2018-09-14T08:32:43.840Z,18.43
2018-09-14T08:33:43.824Z,18.54
2018-09-14T08:34:52.813Z,18.44
2018-09-14T08:35:43.790Z,18.36
2018-09-14T08:36:43.770Z,18.39
2018-09-14T08:37:43.753Z,18.39
2018-09-14T08:38:43.736Z,18.58
2018-09-14T08:39:43.718Z,18.77
2018-09-14T08:40:45.953Z,18.83
2018-09-14T08:41:43.683Z,18.99
2018-09-14T08:42:43.665Z,18.95
2018-09-14T08:43:43.647Z,18.86
2018-09-14T08:44:43.629Z,18.83
2018-09-14T08:45:43.615Z,18.91
2018-09-14T08:46:43.598Z,18.99
2018-09-14T08:47:43.629Z,18.99
2018-09-14T08:48:43.562Z,18.97
2018-09-14T08:49:43.547Z,18.86
2018-09-14T08:50:43.525Z,18.91
2018-09-14T08:51:43.508Z,18.97
2018-09-14T08:52:43.492Z,19.11
2018-09-14T08:53:43.529Z,19.14
2018-09-14T08:54:43.459Z,19.31
2018-09-14T08:55:43.440Z,19.38
2018-09-14T08:56:43.426Z,19.21
2018-09-14T08:57:43.405Z,19.28
2018-09-14T08:58:43.388Z,19.36
2018-09-14T08:59:43.371Z,19.47
2018-09-14T09:00:43.476Z,19.72
2018-09-14T09:01:43.337Z,19.70
2018-09-14T09:02:43.321Z,19.72
2018-09-14T09:03:43.340Z,19.68
2018-09-14T09:04:43.289Z,19.65
2018-09-14T09:05:43.271Z,19.60
2018-09-14T09:06:43.253Z,19.55
2018-09-14T09:07:43.236Z,19.68
2018-09-14T09:08:43.221Z,19.70
2018-09-14T09:09:43.204Z,19.87
2018-09-14T09:10:43.188Z,19.98
2018-09-14T09:11:43.170Z,19.94
2018-09-14T09:12:43.904Z,19.88
2018-09-14T09:13:43.137Z,19.69
2018-09-14T09:14:43.123Z,19.88
2018-09-14T09:15:43.104Z,19.76
2018-09-14T09:16:43.087Z,19.65
2018-09-14T09:17:43.135Z,19.73
2018-09-14T09:18:43.059Z,19.68
2018-09-14T09:19:43.039Z,19.55
2018-09-14T09:20:43.019Z,19.55
2018-09-14T09:21:43.004Z,19.47
2018-09-14T09:22:42.989Z,19.51
2018-09-14T09:23:46.723Z,19.54
2018-09-14T09:24:42.951Z,19.65
2018-09-14T09:25:42.935Z,19.58
2018-09-14T09:26:42.918Z,19.75
2018-09-14T09:27:42.900Z,19.72
2018-09-14T09:28:42.888Z,19.70
2018-09-14T09:29:42.871Z,19.63
2018-09-14T09:30:42.849Z,19.57
2018-09-14T09:31:42.872Z,19.50
2018-09-14T09:32:42.816Z,19.46
2018-09-14T09:33:42.798Z,19.50
2018-09-14T09:34:42.783Z,19.57
2018-09-14T09:35:42.763Z,19.51
2018-09-14T09:36:42.749Z,19.57
2018-09-14T09:37:42.733Z,19.58
2018-09-14T09:38:42.711Z,19.76
2018-09-14T09:39:42.696Z,19.80
2018-09-14T09:40:42.677Z,19.97
2018-09-14T09:41:42.666Z,19.98
2018-09-14T09:42:42.643Z,20.20
2018-09-14T09:43:42.705Z,20.21
2018-09-14T09:44:42.609Z,20.27
2018-09-14T09:45:42.592Z,20.46
2018-09-14T09:46:42.574Z,20.15
2018-09-14T09:47:42.558Z,20.34
2018-09-14T09:48:42.541Z,20.38
2018-09-14T09:49:42.524Z,20.53
2018-09-14T09:50:45.526Z,20.53
2018-09-14T09:51:42.489Z,20.51
2018-09-14T09:52:42.474Z,20.61
2018-09-14T09:53:42.456Z,20.47
2018-09-14T09:54:42.440Z,20.51
2018-09-14T09:55:42.423Z,20.64
2018-09-14T09:56:43.976Z,20.43
2018-09-14T09:57:42.393Z,20.56
2018-09-14T09:58:42.373Z,20.65
2018-09-14T09:59:42.355Z,20.58
2018-09-14T10:00:42.346Z,20.65
2018-09-14T10:01:42.323Z,20.59
2018-09-14T10:02:42.306Z,20.53
2018-09-14T10:03:42.363Z,20.54
2018-09-14T10:04:42.274Z,20.68
2018-09-14T10:05:42.257Z,20.64
2018-09-14T10:06:42.242Z,20.47
2018-09-14T10:07:42.223Z,20.34
2018-09-14T10:08:42.208Z,20.35
2018-09-14T10:09:42.191Z,20.31
2018-09-14T10:10:42.174Z,20.34
2018-09-14T10:11:42.158Z,20.20
2018-09-14T10:12:42.143Z,20.06
2018-09-14T10:13:42.126Z,20.08
2018-09-14T10:14:42.109Z,19.93
2018-09-14T10:15:42.093Z,19.95
2018-09-14T10:16:42.077Z,20.16
2018-09-14T10:17:42.059Z,20.25
2018-09-14T10:18:42.045Z,20.31
2018-09-14T10:19:42.029Z,20.39
2018-09-14T10:20:42.038Z,20.27
2018-09-14T10:21:42.013Z,20.21
2018-09-14T10:22:41.975Z,20.25
2018-09-14T10:23:41.958Z,20.24
2018-09-14T10:24:41.941Z,20.27
2018-09-14T10:25:41.925Z,20.24
2018-09-14T10:26:41.910Z,20.38
2018-09-14T10:27:41.891Z,20.49
2018-09-14T10:28:41.874Z,20.66
2018-09-14T10:29:41.858Z,20.61
2018-09-14T10:30:41.840Z,20.71
2018-09-14T10:31:41.824Z,20.77
2018-09-14T10:32:41.808Z,20.68
2018-09-14T10:33:41.791Z,20.79
2018-09-14T10:34:43.275Z,20.76
2018-09-14T10:35:41.758Z,20.69
2018-09-14T10:36:41.741Z,20.76
2018-09-14T10:37:41.723Z,20.68
2018-09-14T10:38:41.708Z,20.81
2018-09-14T10:39:41.719Z,20.81
2018-09-14T10:40:41.715Z,20.81
2018-09-14T10:41:41.658Z,20.84
2018-09-14T10:42:41.649Z,20.69
2018-09-14T10:43:41.624Z,20.81
2018-09-14T10:44:41.608Z,20.79
2018-09-14T10:45:41.592Z,20.68
2018-09-14T10:46:41.577Z,20.65
2018-09-14T10:47:41.558Z,20.77
2018-09-14T10:48:41.581Z,20.80
2018-09-14T10:49:41.525Z,20.68
2018-09-14T10:50:41.508Z,20.80
2018-09-14T10:51:44.494Z,21.01
2018-09-14T10:52:41.475Z,21.17
2018-09-14T10:53:41.458Z,20.98
2018-09-14T10:54:41.497Z,20.87
2018-09-14T10:55:41.426Z,20.96
2018-09-14T10:56:41.408Z,21.02
2018-09-14T10:57:42.895Z,21.11
2018-09-14T10:58:41.376Z,21.11
2018-09-14T10:59:41.360Z,21.14
2018-09-14T11:00:41.398Z,21.23
2018-09-14T11:01:41.329Z,21.38
2018-09-14T11:02:41.309Z,21.29
2018-09-14T11:03:42.044Z,21.34
2018-09-14T11:04:41.277Z,21.46
2018-09-14T11:05:41.260Z,21.44
2018-09-14T11:06:41.369Z,21.39
2018-09-14T11:07:41.226Z,21.57
2018-09-14T11:08:41.214Z,21.46
2018-09-14T11:09:41.194Z,21.48
2018-09-14T11:10:41.177Z,21.64
2018-09-14T11:11:41.163Z,21.61
2018-09-14T11:12:41.211Z,21.57
2018-09-14T11:13:41.131Z,21.67
2018-09-14T11:14:41.112Z,21.63
2018-09-14T11:15:41.097Z,21.74
2018-09-14T11:16:41.080Z,21.79
2018-09-14T11:17:41.064Z,21.79
2018-09-14T11:18:41.152Z,21.97
2018-09-14T11:19:41.037Z,22.07
2018-09-14T11:20:41.064Z,22.14
2018-09-14T11:21:41.002Z,22.19
2018-09-14T11:22:40.984Z,22.17
2018-09-14T11:23:40.968Z,22.31
2018-09-14T11:24:44.996Z,22.43
2018-09-14T11:25:40.936Z,22.38
2018-09-14T11:26:40.919Z,22.35
2018-09-14T11:27:40.926Z,22.23
2018-09-14T11:28:40.890Z,22.29
2018-09-14T11:29:40.874Z,22.28
2018-09-14T11:30:46.864Z,21.78
2018-09-14T11:31:40.847Z,21.41
2018-09-14T11:32:40.829Z,21.26
2018-09-14T11:33:40.812Z,21.19
2018-09-14T11:34:40.796Z,21.24
2018-09-14T11:35:40.778Z,21.26
2018-09-14T11:36:41.513Z,21.42
2018-09-14T11:37:40.791Z,21.41
2018-09-14T11:38:40.768Z,21.44
2018-09-14T11:39:40.754Z,21.59
2018-09-14T11:40:40.699Z,21.50
2018-09-14T11:41:40.683Z,21.42
2018-09-14T11:42:40.669Z,21.54
2018-09-14T11:43:40.651Z,21.54
2018-09-14T11:44:40.636Z,21.38
2018-09-14T11:45:40.621Z,21.02
2018-09-14T11:46:40.612Z,20.99
2018-09-14T11:47:40.591Z,20.95
2018-09-14T11:48:40.574Z,20.90
2018-09-14T11:49:40.556Z,21.09
2018-09-14T11:50:40.538Z,21.09
2018-09-14T11:51:40.523Z,21.11
2018-09-14T11:52:40.506Z,21.09
2018-09-14T11:53:40.491Z,21.14
2018-09-14T11:54:40.475Z,21.30
2018-09-14T11:55:40.457Z,21.27
2018-09-14T11:56:40.441Z,21.34
2018-09-14T11:57:40.425Z,21.46
2018-09-14T11:58:40.409Z,21.60
2018-09-14T11:59:40.392Z,21.82
2018-09-14T12:00:40.376Z,21.91
2018-09-14T12:01:40.360Z,22.04
2018-09-14T12:02:40.343Z,22.06
2018-09-14T12:03:40.327Z,22.31
2018-09-14T12:04:40.311Z,22.07
2018-09-14T12:05:40.295Z,22.04
2018-09-14T12:06:40.279Z,22.19
2018-09-14T12:07:40.263Z,22.25
2018-09-14T12:08:41.748Z,22.41
2018-09-14T12:09:40.231Z,22.54
2018-09-14T12:10:40.216Z,22.59
2018-09-14T12:11:40.198Z,22.59
2018-09-14T12:12:40.184Z,22.44
2018-09-14T12:13:40.307Z,22.19
2018-09-14T12:14:40.152Z,22.14
2018-09-14T12:15:40.135Z,22.25
2018-09-14T12:16:40.120Z,22.53
2018-09-14T12:17:40.103Z,22.62
2018-09-14T12:18:40.088Z,22.72
2018-09-14T12:19:40.071Z,22.80
2018-09-14T12:20:40.056Z,22.96
2018-09-14T12:21:40.041Z,22.86
2018-09-14T12:22:40.029Z,22.87
2018-09-14T12:23:40.010Z,22.92
2018-09-14T12:24:39.994Z,23.09
2018-09-14T12:25:39.982Z,23.17
2018-09-14T12:26:39.963Z,22.86
2018-09-14T12:27:39.946Z,22.72
2018-09-14T12:28:39.931Z,22.68
2018-09-14T12:29:39.916Z,22.54
2018-09-14T12:30:39.899Z,22.53
2018-09-14T12:31:39.883Z,22.72
2018-09-14T12:32:39.868Z,22.50
2018-09-14T12:33:39.852Z,22.47
2018-09-14T12:34:39.838Z,22.39
2018-09-14T12:35:39.866Z,22.54
2018-09-14T12:36:42.810Z,22.53
2018-09-14T12:37:39.790Z,22.47
2018-09-14T12:38:39.774Z,22.43
2018-09-14T12:39:39.758Z,22.38
2018-09-14T12:40:39.743Z,22.43
2018-09-14T12:41:39.727Z,22.46
2018-09-14T12:42:43.465Z,22.47
2018-09-14T12:43:39.695Z,22.43
2018-09-14T12:44:39.680Z,22.37
2018-09-14T12:45:39.664Z,22.34
2018-09-14T12:46:39.647Z,22.43
2018-09-14T12:47:39.633Z,22.47
2018-09-14T12:48:39.679Z,22.52
2018-09-14T12:49:39.603Z,22.57
2018-09-14T12:50:39.585Z,22.62
2018-09-14T12:51:39.570Z,22.62
2018-09-14T12:52:39.554Z,22.78